KZR123 UAUU-UAAA
Flight info
| Callsign | KZR123 |
|---|---|
| Flight time | 1h 54m |
| Altitude | 37000 |
| Route | DOKUT3E DOKUT L998 TULPI W333 ETEDA ETEDA1X |
| Aircraft | A320/M-SDE1FGHIJ1RWXYZ/LB1 |
Departure
| Time | 2026-04-25 16:39 |
|---|---|
| Airport | Kostanay International Airport (UAUU) |
Arrival
| Time | 2026-04-25 18:34 |
|---|---|
| Airport | Almaty International Airport (UAAA) |
| Time | Latitude | Longitude | Altitude | Speed | Heading |
|---|---|---|---|---|---|
| 2026-04-25 16:12 | 53.22087 | 63.55211 | 607 ft | 0 kts | 64° |
| 2026-04-25 16:31 | 53.22084 | 63.55202 | 607 ft | 2 kts | 59° |
| 2026-04-25 16:31 | 53.22073 | 63.55177 | 621 ft | 3 kts | 25° |
| 2026-04-25 16:31 | 53.22056 | 63.55172 | 619 ft | 3 kts | 339° |
| 2026-04-25 16:31 | 53.22039 | 63.55188 | 621 ft | 3 kts | 315° |
| 2026-04-25 16:32 | 53.22026 | 63.55213 | 620 ft | 3 kts | 296° |
| 2026-04-25 16:32 | 53.22021 | 63.55232 | 619 ft | 3 kts | 274° |
| 2026-04-25 16:32 | 53.22020 | 63.55246 | 621 ft | 0 kts | 256° |
| 2026-04-25 16:35 | 53.22019 | 63.55240 | 621 ft | 2 kts | 256° |
| 2026-04-25 16:35 | 53.22009 | 63.55170 | 612 ft | 8 kts | 256° |
| 2026-04-25 16:36 | 53.21988 | 63.55064 | 617 ft | 11 kts | 249° |
| 2026-04-25 16:36 | 53.21978 | 63.55024 | 609 ft | 12 kts | 247° |
| 2026-04-25 16:36 | 53.21913 | 63.54768 | 609 ft | 17 kts | 246° |
| 2026-04-25 16:36 | 53.21864 | 63.54577 | 612 ft | 19 kts | 247° |
| 2026-04-25 16:37 | 53.21819 | 63.54404 | 614 ft | 11 kts | 246° |
| 2026-04-25 16:37 | 53.21786 | 63.54274 | 611 ft | 14 kts | 247° |
| 2026-04-25 16:37 | 53.21731 | 63.54201 | 616 ft | 11 kts | 180° |
| 2026-04-25 16:37 | 53.21674 | 63.54233 | 610 ft | 0 kts | 156° |
| 2026-04-25 16:38 | 53.21562 | 63.54312 | 604 ft | 50 kts | 157° |
| 2026-04-25 16:39 | 53.21256 | 63.54529 | 603 ft | 93 kts | 156° |
| 2026-04-25 16:39 | 53.20156 | 63.55306 | 588 ft | 160 kts | 157° |
| 2026-04-25 16:39 | 53.19093 | 63.56028 | 1083 ft | 163 kts | 159° |
| 2026-04-25 16:39 | 53.18047 | 63.56779 | 1845 ft | 163 kts | 162° |
| 2026-04-25 16:40 | 53.17023 | 63.57529 | 2571 ft | 162 kts | 164° |
| 2026-04-25 16:40 | 53.15933 | 63.58311 | 2915 ft | 180 kts | 164° |
| 2026-04-25 16:40 | 53.14694 | 63.59181 | 3236 ft | 206 kts | 164° |
| 2026-04-25 16:40 | 53.13309 | 63.60211 | 3657 ft | 233 kts | 156° |
| 2026-04-25 16:41 | 53.12160 | 63.62341 | 4253 ft | 269 kts | 120° |
| 2026-04-25 16:41 | 53.11878 | 63.64410 | 4777 ft | 287 kts | 97° |
| 2026-04-25 16:41 | 53.12468 | 63.72415 | 6734 ft | 305 kts | 89° |
| 2026-04-25 16:42 | 53.12317 | 63.75879 | 7529 ft | 298 kts | 111° |
| 2026-04-25 16:42 | 53.11719 | 63.79165 | 8379 ft | 298 kts | 116° |
| 2026-04-25 16:42 | 53.11040 | 63.82441 | 9227 ft | 300 kts | 117° |
| 2026-04-25 16:42 | 53.10329 | 63.85725 | 10025 ft | 304 kts | 117° |
| 2026-04-25 16:43 | 53.09593 | 63.89067 | 10596 ft | 316 kts | 118° |
| 2026-04-25 16:43 | 53.08801 | 63.92621 | 10808 ft | 339 kts | 117° |
| 2026-04-25 16:43 | 53.07955 | 63.96425 | 10996 ft | 361 kts | 117° |
| 2026-04-25 16:43 | 53.07086 | 64.00397 | 11500 ft | 371 kts | 116° |
| 2026-04-25 16:44 | 53.06210 | 64.04468 | 12137 ft | 376 kts | 116° |
| 2026-04-25 16:44 | 53.05330 | 64.08588 | 12814 ft | 380 kts | 116° |
| 2026-04-25 16:44 | 53.04440 | 64.12746 | 13498 ft | 384 kts | 116° |
| 2026-04-25 16:44 | 53.03534 | 64.16951 | 14117 ft | 388 kts | 116° |
| 2026-04-25 16:45 | 53.02618 | 64.21185 | 14723 ft | 391 kts | 116° |
| 2026-04-25 16:45 | 53.01692 | 64.25453 | 15311 ft | 394 kts | 116° |
| 2026-04-25 16:45 | 53.00756 | 64.29748 | 15906 ft | 398 kts | 116° |
| 2026-04-25 16:45 | 52.99806 | 64.34083 | 16485 ft | 401 kts | 116° |
| 2026-04-25 16:46 | 52.98848 | 64.38448 | 17084 ft | 404 kts | 116° |
| 2026-04-25 16:46 | 52.97878 | 64.42855 | 17697 ft | 408 kts | 116° |
| 2026-04-25 16:46 | 52.96896 | 64.47295 | 18277 ft | 412 kts | 116° |
| 2026-04-25 16:46 | 52.96241 | 64.50252 | 18650 ft | 414 kts | 116° |
| 2026-04-25 16:47 | 52.94907 | 64.56277 | 19429 ft | 418 kts | 116° |
| 2026-04-25 16:47 | 52.93903 | 64.60802 | 20026 ft | 420 kts | 117° |
| 2026-04-25 16:47 | 52.92889 | 64.65363 | 20600 ft | 422 kts | 117° |
| 2026-04-25 16:47 | 52.91872 | 64.69937 | 21144 ft | 425 kts | 117° |
| 2026-04-25 16:48 | 52.90844 | 64.74556 | 21662 ft | 427 kts | 117° |
| 2026-04-25 16:48 | 52.89812 | 64.79180 | 22172 ft | 430 kts | 117° |
| 2026-04-25 16:48 | 52.88767 | 64.83833 | 22667 ft | 432 kts | 117° |
| 2026-04-25 16:48 | 52.87715 | 64.88508 | 23146 ft | 435 kts | 117° |
| 2026-04-25 16:49 | 52.86659 | 64.93204 | 23574 ft | 437 kts | 117° |
| 2026-04-25 16:49 | 52.85592 | 64.97942 | 23959 ft | 440 kts | 117° |
| 2026-04-25 16:49 | 52.84518 | 65.02695 | 24339 ft | 442 kts | 117° |
| 2026-04-25 16:49 | 52.83438 | 65.07463 | 24706 ft | 444 kts | 117° |
| 2026-04-25 16:50 | 52.82348 | 65.12260 | 25064 ft | 447 kts | 117° |
| 2026-04-25 16:50 | 52.81248 | 65.17067 | 25414 ft | 449 kts | 117° |
| 2026-04-25 16:50 | 52.79858 | 65.21629 | 25760 ft | 440 kts | 130° |
| 2026-04-25 16:50 | 52.77973 | 65.25567 | 26113 ft | 436 kts | 137° |
| 2026-04-25 16:51 | 52.76003 | 65.29397 | 26479 ft | 438 kts | 137° |
| 2026-04-25 16:51 | 52.74022 | 65.33242 | 26826 ft | 441 kts | 137° |
| 2026-04-25 16:51 | 52.72029 | 65.37104 | 27181 ft | 443 kts | 137° |
| 2026-04-25 16:51 | 52.71351 | 65.38415 | 27293 ft | 444 kts | 137° |
| 2026-04-25 16:52 | 52.68011 | 65.44877 | 27867 ft | 447 kts | 136° |
| 2026-04-25 16:52 | 52.65989 | 65.48790 | 28196 ft | 450 kts | 136° |
| 2026-04-25 16:52 | 52.63969 | 65.52694 | 28670 ft | 448 kts | 136° |
| 2026-04-25 16:52 | 52.61943 | 65.56607 | 29157 ft | 447 kts | 136° |
| 2026-04-25 16:53 | 52.57920 | 65.64369 | 30089 ft | 445 kts | 136° |
| 2026-04-25 16:53 | 52.55909 | 65.68237 | 30500 ft | 445 kts | 136° |
| 2026-04-25 16:53 | 52.53896 | 65.72092 | 30870 ft | 445 kts | 136° |
| 2026-04-25 16:54 | 52.51875 | 65.75950 | 31241 ft | 446 kts | 136° |
| 2026-04-25 16:54 | 52.49845 | 65.79815 | 31603 ft | 447 kts | 136° |
| 2026-04-25 16:54 | 52.47816 | 65.83675 | 31977 ft | 447 kts | 136° |
| 2026-04-25 16:54 | 52.45781 | 65.87546 | 32344 ft | 448 kts | 136° |
| 2026-04-25 16:55 | 52.43745 | 65.91421 | 32709 ft | 449 kts | 136° |
| 2026-04-25 16:55 | 52.41702 | 65.95300 | 33070 ft | 450 kts | 136° |
| 2026-04-25 16:55 | 52.39657 | 65.99177 | 33436 ft | 451 kts | 136° |
| 2026-04-25 16:55 | 52.37600 | 66.03065 | 33807 ft | 452 kts | 136° |
| 2026-04-25 16:56 | 52.35540 | 66.06951 | 34125 ft | 452 kts | 136° |
| 2026-04-25 16:56 | 52.33480 | 66.10843 | 34442 ft | 452 kts | 136° |
| 2026-04-25 16:56 | 52.31421 | 66.14732 | 34775 ft | 452 kts | 136° |
| 2026-04-25 16:56 | 52.29363 | 66.18610 | 35112 ft | 451 kts | 136° |
| 2026-04-25 16:57 | 52.27308 | 66.22470 | 35434 ft | 451 kts | 136° |
| 2026-04-25 16:57 | 52.26613 | 66.23772 | 35542 ft | 450 kts | 136° |
| 2026-04-25 16:57 | 52.23192 | 66.30181 | 36056 ft | 450 kts | 136° |
| 2026-04-25 16:57 | 52.21140 | 66.34017 | 36368 ft | 449 kts | 136° |
| 2026-04-25 16:58 | 52.19082 | 66.37857 | 36673 ft | 449 kts | 136° |
| 2026-04-25 16:58 | 52.17023 | 66.41687 | 36834 ft | 450 kts | 136° |
| 2026-04-25 16:58 | 52.14950 | 66.45535 | 36868 ft | 455 kts | 136° |
| 2026-04-25 16:59 | 52.10755 | 66.53324 | 36858 ft | 459 kts | 136° |
| 2026-04-25 16:59 | 52.06536 | 66.61128 | 36860 ft | 459 kts | 136° |
| 2026-04-25 17:00 | 52.02993 | 66.67648 | 36856 ft | 460 kts | 136° |
| 2026-04-25 17:00 | 51.98080 | 66.76689 | 36851 ft | 460 kts | 136° |
| 2026-04-25 17:01 | 51.93837 | 66.84483 | 36850 ft | 461 kts | 136° |
| 2026-04-25 17:01 | 51.89584 | 66.92246 | 36848 ft | 461 kts | 136° |
| 2026-04-25 17:02 | 51.85324 | 67.00006 | 36843 ft | 461 kts | 136° |
| 2026-04-25 17:02 | 51.81060 | 67.07754 | 36840 ft | 461 kts | 136° |
| 2026-04-25 17:03 | 51.76793 | 67.15483 | 36839 ft | 461 kts | 136° |
| 2026-04-25 17:03 | 51.72514 | 67.23214 | 36836 ft | 461 kts | 136° |
| 2026-04-25 17:04 | 51.68230 | 67.30922 | 36833 ft | 461 kts | 138° |
| 2026-04-25 17:04 | 51.63924 | 67.38641 | 36820 ft | 460 kts | 136° |
| 2026-04-25 17:05 | 51.59656 | 67.46282 | 36824 ft | 459 kts | 136° |
| 2026-04-25 17:05 | 51.53277 | 67.57645 | 36816 ft | 458 kts | 136° |
| 2026-04-25 17:06 | 51.48963 | 67.65282 | 36818 ft | 458 kts | 136° |
| 2026-04-25 17:06 | 51.44705 | 67.72810 | 36820 ft | 459 kts | 136° |
| 2026-04-25 17:07 | 51.40384 | 67.80425 | 36827 ft | 459 kts | 137° |
| 2026-04-25 17:07 | 51.36081 | 67.87975 | 36834 ft | 459 kts | 137° |
| 2026-04-25 17:08 | 51.31599 | 67.95203 | 36831 ft | 457 kts | 141° |
| 2026-04-25 17:08 | 51.27761 | 68.00995 | 36841 ft | 457 kts | 141° |
| 2026-04-25 17:09 | 51.23142 | 68.07950 | 36830 ft | 457 kts | 141° |
| 2026-04-25 17:09 | 51.18556 | 68.14992 | 36836 ft | 458 kts | 140° |
| 2026-04-25 17:10 | 51.13987 | 68.22066 | 36832 ft | 458 kts | 140° |
| 2026-04-25 17:10 | 51.09398 | 68.29115 | 36836 ft | 459 kts | 141° |
| 2026-04-25 17:11 | 51.04793 | 68.36141 | 36836 ft | 459 kts | 141° |
| 2026-04-25 17:11 | 51.00178 | 68.43164 | 36833 ft | 459 kts | 141° |
| 2026-04-25 17:12 | 50.95556 | 68.50173 | 36841 ft | 460 kts | 141° |
| 2026-04-25 17:12 | 50.90932 | 68.57177 | 36844 ft | 460 kts | 141° |
| 2026-04-25 17:13 | 50.87049 | 68.63049 | 36848 ft | 461 kts | 141° |
| 2026-04-25 17:13 | 50.81646 | 68.71180 | 36851 ft | 461 kts | 141° |
| 2026-04-25 17:14 | 50.76992 | 68.78163 | 36855 ft | 461 kts | 141° |
| 2026-04-25 17:14 | 50.72330 | 68.85141 | 36858 ft | 462 kts | 141° |
| 2026-04-25 17:15 | 50.67669 | 68.92112 | 36853 ft | 462 kts | 141° |
| 2026-04-25 17:15 | 50.62998 | 68.99061 | 36855 ft | 462 kts | 141° |
| 2026-04-25 17:16 | 50.58319 | 69.06003 | 36860 ft | 462 kts | 141° |
| 2026-04-25 17:16 | 50.53634 | 69.12929 | 36859 ft | 462 kts | 141° |
| 2026-04-25 17:17 | 50.48940 | 69.19852 | 36866 ft | 463 kts | 141° |
| 2026-04-25 17:17 | 50.44482 | 69.27166 | 36864 ft | 468 kts | 132° |
| 2026-04-25 17:18 | 50.40450 | 69.35184 | 36866 ft | 468 kts | 132° |
| 2026-04-25 17:18 | 50.36388 | 69.43234 | 36878 ft | 468 kts | 132° |
| 2026-04-25 17:19 | 50.32333 | 69.51212 | 36878 ft | 468 kts | 133° |
| 2026-04-25 17:19 | 50.28275 | 69.59191 | 36885 ft | 468 kts | 133° |
| 2026-04-25 17:20 | 50.24211 | 69.67146 | 36886 ft | 468 kts | 133° |
| 2026-04-25 17:20 | 50.20145 | 69.75093 | 36894 ft | 469 kts | 133° |
| 2026-04-25 17:21 | 50.16069 | 69.83034 | 36895 ft | 469 kts | 133° |
| 2026-04-25 17:21 | 50.11991 | 69.90960 | 36898 ft | 469 kts | 133° |
| 2026-04-25 17:22 | 50.08589 | 69.97543 | 36903 ft | 469 kts | 133° |
| 2026-04-25 17:22 | 50.03800 | 70.06776 | 36913 ft | 469 kts | 133° |
| 2026-04-25 17:23 | 49.99692 | 70.14669 | 36914 ft | 469 kts | 133° |
| 2026-04-25 17:23 | 49.95587 | 70.22551 | 36921 ft | 469 kts | 133° |
| 2026-04-25 17:24 | 49.91478 | 70.30424 | 36921 ft | 469 kts | 133° |
| 2026-04-25 17:24 | 49.87361 | 70.38276 | 36929 ft | 469 kts | 133° |
| 2026-04-25 17:25 | 49.83235 | 70.46118 | 36930 ft | 469 kts | 133° |
| 2026-04-25 17:25 | 49.79108 | 70.53940 | 36934 ft | 469 kts | 133° |
| 2026-04-25 17:26 | 49.74974 | 70.61754 | 36937 ft | 469 kts | 133° |
| 2026-04-25 17:26 | 49.70841 | 70.69556 | 36770 ft | 469 kts | 135° |
| 2026-04-25 17:27 | 49.68768 | 70.73453 | 36941 ft | 470 kts | 135° |
| 2026-04-25 17:27 | 49.66688 | 70.77357 | 36945 ft | 472 kts | 135° |
| 2026-04-25 17:27 | 49.63895 | 70.82589 | 36954 ft | 472 kts | 135° |
| 2026-04-25 17:28 | 49.58330 | 70.92982 | 36966 ft | 472 kts | 135° |
| 2026-04-25 17:28 | 49.54143 | 71.00764 | 36975 ft | 472 kts | 136° |
| 2026-04-25 17:29 | 49.49958 | 71.08529 | 36972 ft | 472 kts | 136° |
| 2026-04-25 17:29 | 49.45762 | 71.16307 | 36981 ft | 472 kts | 136° |
| 2026-04-25 17:30 | 49.41558 | 71.24057 | 36977 ft | 472 kts | 136° |
| 2026-04-25 17:30 | 49.37352 | 71.31802 | 36983 ft | 473 kts | 136° |
| 2026-04-25 17:31 | 49.33134 | 71.39551 | 36986 ft | 473 kts | 136° |
| 2026-04-25 17:31 | 49.28903 | 71.47284 | 36986 ft | 473 kts | 136° |
| 2026-04-25 17:32 | 49.24667 | 71.55009 | 36994 ft | 474 kts | 136° |
| 2026-04-25 17:32 | 49.20422 | 71.62738 | 36996 ft | 475 kts | 136° |
| 2026-04-25 17:33 | 49.16168 | 71.70460 | 36999 ft | 475 kts | 136° |
| 2026-04-25 17:33 | 49.11901 | 71.78158 | 37004 ft | 475 kts | 136° |
| 2026-04-25 17:34 | 49.07625 | 71.85850 | 37005 ft | 476 kts | 136° |
| 2026-04-25 17:34 | 49.03344 | 71.93549 | 37007 ft | 476 kts | 136° |
| 2026-04-25 17:35 | 48.99060 | 72.01237 | 37013 ft | 476 kts | 136° |
| 2026-04-25 17:35 | 48.94768 | 72.08912 | 37014 ft | 476 kts | 136° |
| 2026-04-25 17:36 | 48.90472 | 72.16572 | 37022 ft | 476 kts | 136° |
| 2026-04-25 17:36 | 48.86167 | 72.24224 | 37029 ft | 476 kts | 136° |
| 2026-04-25 17:37 | 48.81857 | 72.31859 | 37034 ft | 476 kts | 136° |
| 2026-04-25 17:37 | 48.77539 | 72.39479 | 37034 ft | 476 kts | 136° |
| 2026-04-25 17:38 | 48.74647 | 72.44572 | 37034 ft | 476 kts | 135° |
| 2026-04-25 17:38 | 48.68884 | 72.54678 | 37051 ft | 476 kts | 135° |
| 2026-04-25 17:39 | 48.64523 | 72.62316 | 37056 ft | 476 kts | 135° |
| 2026-04-25 17:39 | 48.60191 | 72.69895 | 37063 ft | 476 kts | 135° |
| 2026-04-25 17:40 | 48.55850 | 72.77448 | 37068 ft | 476 kts | 135° |
| 2026-04-25 17:40 | 48.51540 | 72.84948 | 37073 ft | 476 kts | 135° |
| 2026-04-25 17:41 | 48.47165 | 72.92522 | 37082 ft | 476 kts | 135° |
| 2026-04-25 17:41 | 48.42836 | 72.99987 | 37084 ft | 476 kts | 135° |
| 2026-04-25 17:42 | 48.38452 | 73.07533 | 37091 ft | 476 kts | 135° |
| 2026-04-25 17:42 | 48.34085 | 73.15028 | 37094 ft | 476 kts | 135° |
| 2026-04-25 17:43 | 48.29717 | 73.22517 | 37098 ft | 477 kts | 135° |
| 2026-04-25 17:43 | 48.25342 | 73.29993 | 37095 ft | 477 kts | 135° |
| 2026-04-25 17:44 | 48.20951 | 73.37463 | 37096 ft | 477 kts | 135° |
| 2026-04-25 17:44 | 48.16550 | 73.44923 | 37100 ft | 478 kts | 135° |
| 2026-04-25 17:45 | 48.13635 | 73.49864 | 37102 ft | 478 kts | 135° |
| 2026-04-25 17:45 | 48.07364 | 73.59188 | 37107 ft | 472 kts | 146° |
| 2026-04-25 17:46 | 48.03090 | 73.64258 | 37109 ft | 473 kts | 146° |
| 2026-04-25 17:46 | 47.97929 | 73.70359 | 37112 ft | 473 kts | 146° |
| 2026-04-25 17:47 | 47.92770 | 73.76458 | 37110 ft | 473 kts | 146° |
| 2026-04-25 17:47 | 47.87608 | 73.82544 | 37111 ft | 473 kts | 146° |
| 2026-04-25 17:48 | 47.79856 | 73.91651 | 37120 ft | 473 kts | 146° |
| 2026-04-25 17:49 | 47.74688 | 73.97704 | 37119 ft | 473 kts | 145° |
| 2026-04-25 17:49 | 47.69510 | 74.03751 | 37121 ft | 473 kts | 145° |
| 2026-04-25 17:50 | 47.64337 | 74.09768 | 37123 ft | 473 kts | 145° |
| 2026-04-25 17:50 | 47.59156 | 74.15787 | 37120 ft | 473 kts | 145° |
| 2026-04-25 17:51 | 47.53989 | 74.21826 | 37122 ft | 473 kts | 145° |
| 2026-04-25 17:51 | 47.48858 | 74.27915 | 37122 ft | 473 kts | 144° |
| 2026-04-25 17:52 | 47.43715 | 74.34010 | 37120 ft | 473 kts | 144° |
| 2026-04-25 17:52 | 47.38568 | 74.40078 | 37124 ft | 473 kts | 145° |
| 2026-04-25 17:53 | 47.33411 | 74.46128 | 37125 ft | 474 kts | 145° |
| 2026-04-25 17:53 | 47.28247 | 74.52166 | 37126 ft | 474 kts | 145° |
| 2026-04-25 17:54 | 47.23086 | 74.58195 | 37118 ft | 474 kts | 145° |
| 2026-04-25 17:54 | 47.17916 | 74.64213 | 37118 ft | 474 kts | 145° |
| 2026-04-25 17:55 | 47.12731 | 74.70226 | 37116 ft | 475 kts | 145° |
| 2026-04-25 17:55 | 47.07540 | 74.76231 | 37113 ft | 475 kts | 145° |
| 2026-04-25 17:56 | 47.02347 | 74.82227 | 37116 ft | 475 kts | 145° |
| 2026-04-25 17:56 | 46.97148 | 74.88217 | 37116 ft | 476 kts | 145° |
| 2026-04-25 17:57 | 46.91948 | 74.94207 | 37116 ft | 476 kts | 145° |
| 2026-04-25 17:57 | 46.86479 | 74.99535 | 37111 ft | 469 kts | 159° |
| 2026-04-25 17:58 | 46.80508 | 75.03328 | 37110 ft | 468 kts | 161° |
| 2026-04-25 17:58 | 46.74530 | 75.07111 | 37109 ft | 468 kts | 160° |
| 2026-04-25 17:59 | 46.68551 | 75.10907 | 37105 ft | 469 kts | 160° |
| 2026-04-25 17:59 | 46.62563 | 75.14692 | 37109 ft | 469 kts | 160° |
| 2026-04-25 18:00 | 46.56582 | 75.18461 | 37106 ft | 469 kts | 160° |
| 2026-04-25 18:00 | 46.50578 | 75.22230 | 37108 ft | 470 kts | 160° |
| 2026-04-25 18:01 | 46.44537 | 75.26005 | 37107 ft | 470 kts | 160° |
| 2026-04-25 18:01 | 46.38531 | 75.29753 | 37109 ft | 470 kts | 160° |
| 2026-04-25 18:02 | 46.32526 | 75.33496 | 37103 ft | 470 kts | 160° |
| 2026-04-25 18:02 | 46.26560 | 75.37213 | 37107 ft | 470 kts | 160° |
| 2026-04-25 18:03 | 46.20503 | 75.40975 | 37103 ft | 470 kts | 160° |
| 2026-04-25 18:03 | 46.14497 | 75.44709 | 37103 ft | 470 kts | 160° |
| 2026-04-25 18:04 | 46.08486 | 75.48458 | 37103 ft | 471 kts | 160° |
| 2026-04-25 18:04 | 46.02470 | 75.52200 | 37102 ft | 471 kts | 160° |
| 2026-04-25 18:05 | 45.96457 | 75.55932 | 37111 ft | 471 kts | 160° |
| 2026-04-25 18:05 | 45.90438 | 75.59665 | 37111 ft | 471 kts | 160° |
| 2026-04-25 18:06 | 45.84419 | 75.63379 | 37109 ft | 471 kts | 160° |
| 2026-04-25 18:06 | 45.78400 | 75.67074 | 37110 ft | 471 kts | 160° |
| 2026-04-25 18:07 | 45.72375 | 75.70770 | 37119 ft | 471 kts | 160° |
| 2026-04-25 18:07 | 45.66357 | 75.74471 | 37111 ft | 471 kts | 160° |
| 2026-04-25 18:08 | 45.60339 | 75.78153 | 37110 ft | 471 kts | 160° |
| 2026-04-25 18:08 | 45.54300 | 75.81839 | 37118 ft | 471 kts | 160° |
| 2026-04-25 18:09 | 45.48273 | 75.85509 | 37119 ft | 471 kts | 160° |
| 2026-04-25 18:09 | 45.42242 | 75.89168 | 37120 ft | 471 kts | 160° |
| 2026-04-25 18:10 | 45.37225 | 75.92207 | 37116 ft | 471 kts | 160° |
| 2026-04-25 18:10 | 45.30171 | 75.96471 | 37118 ft | 471 kts | 160° |
| 2026-04-25 18:11 | 45.24136 | 76.00128 | 37118 ft | 472 kts | 160° |
| 2026-04-25 18:11 | 45.18094 | 76.03768 | 37117 ft | 472 kts | 160° |
| 2026-04-25 18:12 | 45.12050 | 76.07389 | 37122 ft | 472 kts | 160° |
| 2026-04-25 18:12 | 45.06007 | 76.11015 | 37121 ft | 472 kts | 160° |
| 2026-04-25 18:13 | 44.99960 | 76.14620 | 37116 ft | 471 kts | 160° |
| 2026-04-25 18:13 | 44.93935 | 76.18206 | 37119 ft | 470 kts | 160° |
| 2026-04-25 18:14 | 44.84842 | 76.23379 | 37088 ft | 466 kts | 170° |
| 2026-04-25 18:14 | 44.81675 | 76.24318 | 36810 ft | 465 kts | 172° |
| 2026-04-25 18:14 | 44.78499 | 76.25188 | 36541 ft | 465 kts | 173° |
| 2026-04-25 18:15 | 44.75320 | 76.26029 | 36282 ft | 465 kts | 173° |
| 2026-04-25 18:15 | 44.72134 | 76.26855 | 36031 ft | 466 kts | 173° |
| 2026-04-25 18:15 | 44.68950 | 76.27680 | 35776 ft | 466 kts | 173° |
| 2026-04-25 18:15 | 44.65759 | 76.28512 | 35462 ft | 467 kts | 173° |
| 2026-04-25 18:16 | 44.62566 | 76.29351 | 35093 ft | 467 kts | 172° |
| 2026-04-25 18:16 | 44.59369 | 76.30195 | 34728 ft | 468 kts | 172° |
| 2026-04-25 18:16 | 44.52953 | 76.31886 | 33869 ft | 469 kts | 172° |
| 2026-04-25 18:17 | 44.49744 | 76.32726 | 33331 ft | 470 kts | 172° |
| 2026-04-25 18:17 | 44.46528 | 76.33568 | 32794 ft | 471 kts | 172° |
| 2026-04-25 18:17 | 44.43302 | 76.34416 | 32164 ft | 472 kts | 172° |
| 2026-04-25 18:17 | 44.40075 | 76.35267 | 31426 ft | 472 kts | 171° |
| 2026-04-25 18:18 | 44.36837 | 76.36117 | 30707 ft | 474 kts | 171° |
| 2026-04-25 18:18 | 44.33592 | 76.36965 | 29953 ft | 475 kts | 171° |
| 2026-04-25 18:18 | 44.30346 | 76.37811 | 29172 ft | 476 kts | 171° |
| 2026-04-25 18:18 | 44.27086 | 76.38662 | 28406 ft | 475 kts | 171° |
| 2026-04-25 18:19 | 44.23851 | 76.39508 | 27666 ft | 471 kts | 171° |
| 2026-04-25 18:19 | 44.20640 | 76.40349 | 26939 ft | 467 kts | 171° |
| 2026-04-25 18:19 | 44.17462 | 76.41181 | 26239 ft | 463 kts | 171° |
| 2026-04-25 18:19 | 44.14311 | 76.42000 | 25550 ft | 458 kts | 171° |
| 2026-04-25 18:20 | 44.11196 | 76.42808 | 24883 ft | 454 kts | 171° |
| 2026-04-25 18:20 | 44.08093 | 76.43609 | 24227 ft | 451 kts | 171° |
| 2026-04-25 18:20 | 44.05024 | 76.44405 | 23564 ft | 447 kts | 171° |
| 2026-04-25 18:20 | 44.01977 | 76.45197 | 22805 ft | 443 kts | 171° |
| 2026-04-25 18:21 | 43.98958 | 76.45978 | 22071 ft | 440 kts | 171° |
| 2026-04-25 18:21 | 43.95962 | 76.46749 | 21352 ft | 436 kts | 171° |
| 2026-04-25 18:21 | 43.92987 | 76.47513 | 20652 ft | 433 kts | 171° |
| 2026-04-25 18:21 | 43.90035 | 76.48273 | 19968 ft | 431 kts | 171° |
| 2026-04-25 18:22 | 43.87098 | 76.49027 | 19328 ft | 428 kts | 171° |
| 2026-04-25 18:22 | 43.86108 | 76.49281 | 19128 ft | 426 kts | 171° |
| 2026-04-25 18:22 | 43.81296 | 76.50517 | 18195 ft | 420 kts | 171° |
| 2026-04-25 18:22 | 43.78442 | 76.51250 | 17640 ft | 415 kts | 171° |
| 2026-04-25 18:23 | 43.75617 | 76.51973 | 17098 ft | 410 kts | 171° |
| 2026-04-25 18:23 | 43.72829 | 76.52691 | 16559 ft | 405 kts | 171° |
| 2026-04-25 18:23 | 43.70076 | 76.53406 | 16038 ft | 400 kts | 171° |
| 2026-04-25 18:23 | 43.67360 | 76.54108 | 15519 ft | 395 kts | 171° |
| 2026-04-25 18:24 | 43.64685 | 76.54793 | 15014 ft | 389 kts | 171° |
| 2026-04-25 18:24 | 43.62035 | 76.55468 | 14513 ft | 384 kts | 171° |
| 2026-04-25 18:24 | 43.60270 | 76.55916 | 14177 ft | 381 kts | 171° |
| 2026-04-25 18:24 | 43.57680 | 76.56573 | 13642 ft | 377 kts | 172° |
| 2026-04-25 18:25 | 43.55114 | 76.57222 | 13116 ft | 374 kts | 171° |
| 2026-04-25 18:25 | 43.51747 | 76.58076 | 12410 ft | 370 kts | 171° |
| 2026-04-25 18:25 | 43.50041 | 76.58511 | 12046 ft | 367 kts | 171° |
| 2026-04-25 18:25 | 43.47549 | 76.59146 | 11525 ft | 360 kts | 171° |
| 2026-04-25 18:26 | 43.45129 | 76.59762 | 11025 ft | 348 kts | 171° |
| 2026-04-25 18:26 | 43.42780 | 76.60359 | 10528 ft | 339 kts | 171° |
| 2026-04-25 18:26 | 43.40497 | 76.60938 | 10040 ft | 331 kts | 171° |
| 2026-04-25 18:26 | 43.38249 | 76.61509 | 9506 ft | 324 kts | 171° |
| 2026-04-25 18:27 | 43.36056 | 76.62065 | 9004 ft | 318 kts | 171° |
| 2026-04-25 18:27 | 43.33902 | 76.62612 | 8502 ft | 312 kts | 171° |
| 2026-04-25 18:27 | 43.31784 | 76.63149 | 8007 ft | 307 kts | 170° |
| 2026-04-25 18:27 | 43.29702 | 76.63682 | 7533 ft | 302 kts | 168° |
| 2026-04-25 18:28 | 43.27777 | 76.64755 | 7058 ft | 299 kts | 146° |
| 2026-04-25 18:28 | 43.26336 | 76.66762 | 6593 ft | 296 kts | 122° |
| 2026-04-25 18:28 | 43.25585 | 76.69356 | 6095 ft | 293 kts | 103° |
| 2026-04-25 18:29 | 43.24692 | 76.74746 | 5267 ft | 282 kts | 103° |
| 2026-04-25 18:29 | 43.24278 | 76.77289 | 5207 ft | 263 kts | 103° |
| 2026-04-25 18:30 | 43.25129 | 76.83685 | 5207 ft | 214 kts | 56° |
| 2026-04-25 18:30 | 43.25959 | 76.85343 | 5029 ft | 208 kts | 56° |
| 2026-04-25 18:30 | 43.26756 | 76.86939 | 4811 ft | 197 kts | 56° |
| 2026-04-25 18:30 | 43.27500 | 76.88432 | 4529 ft | 183 kts | 56° |
| 2026-04-25 18:31 | 43.28190 | 76.89816 | 4293 ft | 168 kts | 56° |
| 2026-04-25 18:31 | 43.28824 | 76.91088 | 4096 ft | 157 kts | 56° |
| 2026-04-25 18:31 | 43.29428 | 76.92301 | 3879 ft | 152 kts | 56° |
| 2026-04-25 18:31 | 43.30021 | 76.93493 | 3669 ft | 150 kts | 56° |
| 2026-04-25 18:32 | 43.30608 | 76.94673 | 3468 ft | 149 kts | 56° |
| 2026-04-25 18:32 | 43.31192 | 76.95847 | 3271 ft | 149 kts | 56° |
| 2026-04-25 18:32 | 43.31775 | 76.97016 | 3084 ft | 148 kts | 56° |
| 2026-04-25 18:32 | 43.32354 | 76.98177 | 2894 ft | 147 kts | 56° |
| 2026-04-25 18:33 | 43.32928 | 76.99340 | 2709 ft | 147 kts | 57° |
| 2026-04-25 18:33 | 43.33502 | 77.00503 | 2484 ft | 147 kts | 57° |
| 2026-04-25 18:33 | 43.34080 | 77.01655 | 2300 ft | 146 kts | 56° |
| 2026-04-25 18:33 | 43.34634 | 77.02762 | 2228 ft | 127 kts | 59° |
| 2026-04-25 18:34 | 43.35040 | 77.03590 | 2226 ft | 80 kts | 56° |
| 2026-04-25 18:34 | 43.35267 | 77.04050 | 2222 ft | 47 kts | 56° |
| 2026-04-25 18:34 | 43.35395 | 77.04310 | 2224 ft | 15 kts | 55° |
| 2026-04-25 18:34 | 43.35462 | 77.04406 | 2223 ft | 4 kts | 34° |
| 2026-04-25 18:35 | 43.35464 | 77.04414 | 2228 ft | 6 kts | 59° |
| 2026-04-25 18:35 | 43.35492 | 77.04495 | 2227 ft | 11 kts | 65° |
| 2026-04-25 18:35 | 43.35533 | 77.04588 | 2228 ft | 13 kts | 56° |
| 2026-04-25 18:35 | 43.35589 | 77.04700 | 2228 ft | 16 kts | 55° |
| 2026-04-25 18:36 | 43.35657 | 77.04836 | 2229 ft | 18 kts | 56° |
| 2026-04-25 18:36 | 43.35733 | 77.04992 | 2225 ft | 18 kts | 56° |
| 2026-04-25 18:36 | 43.35791 | 77.05109 | 2227 ft | 13 kts | 56° |
| 2026-04-25 18:36 | 43.35858 | 77.05172 | 2223 ft | 13 kts | 357° |
| 2026-04-25 18:37 | 43.35928 | 77.05118 | 2224 ft | 0 kts | 327° |
| 2026-04-25 18:37 | 43.35938 | 77.05109 | 2223 ft | 3 kts | 327° |
| 2026-04-25 18:37 | 43.35963 | 77.05080 | 2222 ft | 6 kts | 310° |
| 2026-04-25 18:37 | 43.35967 | 77.05015 | 2226 ft | 8 kts | 252° |
| 2026-04-25 18:38 | 43.35936 | 77.04941 | 2225 ft | 10 kts | 237° |
| 2026-04-25 18:38 | 43.35892 | 77.04850 | 2224 ft | 13 kts | 235° |
| 2026-04-25 18:38 | 43.35835 | 77.04737 | 2222 ft | 15 kts | 236° |
| 2026-04-25 18:38 | 43.35771 | 77.04608 | 2225 ft | 17 kts | 235° |
| 2026-04-25 18:39 | 43.35699 | 77.04460 | 2225 ft | 20 kts | 235° |
| 2026-04-25 18:39 | 43.35616 | 77.04294 | 2222 ft | 22 kts | 236° |
| 2026-04-25 18:39 | 43.35522 | 77.04103 | 2223 ft | 25 kts | 236° |
| 2026-04-25 18:39 | 43.35432 | 77.03921 | 2223 ft | 22 kts | 235° |
| 2026-04-25 18:40 | 43.35341 | 77.03739 | 2225 ft | 24 kts | 236° |
| 2026-04-25 18:40 | 43.35257 | 77.03568 | 2224 ft | 20 kts | 235° |
| 2026-04-25 18:40 | 43.35176 | 77.03406 | 2226 ft | 22 kts | 236° |
| 2026-04-25 18:40 | 43.35086 | 77.03224 | 2228 ft | 24 kts | 236° |
| 2026-04-25 18:41 | 43.34988 | 77.03026 | 2225 ft | 22 kts | 236° |
| 2026-04-25 18:41 | 43.34900 | 77.02848 | 2223 ft | 18 kts | 236° |
| 2026-04-25 18:41 | 43.34826 | 77.02697 | 2226 ft | 20 kts | 235° |
| 2026-04-25 18:41 | 43.34773 | 77.02559 | 2227 ft | 16 kts | 262° |
| 2026-04-25 18:42 | 43.34777 | 77.02391 | 2227 ft | 19 kts | 276° |
| 2026-04-25 18:42 | 43.34781 | 77.02328 | 2228 ft | 20 kts | 274° |
| 2026-04-25 18:42 | 43.34797 | 77.01990 | 2228 ft | 17 kts | 273° |
| 2026-04-25 18:42 | 43.34805 | 77.01814 | 2228 ft | 20 kts | 274° |
| 2026-04-25 18:43 | 43.34814 | 77.01633 | 2227 ft | 17 kts | 275° |
| 2026-04-25 18:43 | 43.34833 | 77.01531 | 2226 ft | 9 kts | 319° |
| 2026-04-25 18:43 | 43.34865 | 77.01465 | 2228 ft | 9 kts | 269° |
| 2026-04-25 18:43 | 43.34846 | 77.01399 | 2226 ft | 3 kts | 245° |
| 2026-04-25 18:44 | 43.34842 | 77.01385 | 2228 ft | 1 kts | 245° |
| 2026-04-25 18:44 | 43.34840 | 77.01381 | 2228 ft | 0 kts | 245° |